sensor_id;sensor_type;location;lat;lon;timestamp;P1;durP1;ratioP1;P2;durP2;ratioP2
3943;SDS011;1986;52.546;13.428;2024-01-27T00:00:14;12.57;;;12.37;;
3943;SDS011;1986;52.546;13.428;2024-01-27T00:02:44;12.50;;;12.30;;
3943;SDS011;1986;52.546;13.428;2024-01-27T00:05:17;12.90;;;12.70;;
3943;SDS011;1986;52.546;13.428;2024-01-27T00:07:44;12.90;;;12.70;;
3943;SDS011;1986;52.546;13.428;2024-01-27T00:10:13;12.70;;;12.50;;
3943;SDS011;1986;52.546;13.428;2024-01-27T00:12:43;12.90;;;12.70;;
3943;SDS011;1986;52.546;13.428;2024-01-27T00:15:11;12.80;;;12.60;;
3943;SDS011;1986;52.546;13.428;2024-01-27T00:17:38;12.90;;;12.70;;
3943;SDS011;1986;52.546;13.428;2024-01-27T00:20:06;12.90;;;12.70;;
3943;SDS011;1986;52.546;13.428;2024-01-27T00:22:34;12.80;;;12.60;;
3943;SDS011;1986;52.546;13.428;2024-01-27T00:25:03;12.80;;;12.60;;
3943;SDS011;1986;52.546;13.428;2024-01-27T00:27:42;12.70;;;12.50;;
3943;SDS011;1986;52.546;13.428;2024-01-27T00:30:11;13.27;;;12.97;;
3943;SDS011;1986;52.546;13.428;2024-01-27T00:32:42;13.10;;;12.80;;
3943;SDS011;1986;52.546;13.428;2024-01-27T00:35:09;12.97;;;12.77;;
3943;SDS011;1986;52.546;13.428;2024-01-27T00:37:39;13.20;;;12.90;;
3943;SDS011;1986;52.546;13.428;2024-01-27T00:40:07;13.50;;;13.20;;
3943;SDS011;1986;52.546;13.428;2024-01-27T00:42:37;13.00;;;12.70;;
3943;SDS011;1986;52.546;13.428;2024-01-27T00:45:12;13.20;;;12.90;;
3943;SDS011;1986;52.546;13.428;2024-01-27T00:47:50;13.20;;;12.90;;
3943;SDS011;1986;52.546;13.428;2024-01-27T00:50:20;13.20;;;12.90;;
3943;SDS011;1986;52.546;13.428;2024-01-27T00:52:55;13.33;;;13.03;;
3943;SDS011;1986;52.546;13.428;2024-01-27T00:58:23;13.77;;;13.47;;
3943;SDS011;1986;52.546;13.428;2024-01-27T01:00:53;13.50;;;13.20;;
3943;SDS011;1986;52.546;13.428;2024-01-27T01:03:26;13.47;;;13.17;;
3943;SDS011;1986;52.546;13.428;2024-01-27T01:06:04;13.80;;;13.50;;
3943;SDS011;1986;52.546;13.428;2024-01-27T01:08:31;13.70;;;13.40;;
3943;SDS011;1986;52.546;13.428;2024-01-27T01:11:08;13.80;;;13.50;;
3943;SDS011;1986;52.546;13.428;2024-01-27T01:13:37;13.70;;;13.40;;
3943;SDS011;1986;52.546;13.428;2024-01-27T01:16:04;13.60;;;13.30;;
3943;SDS011;1986;52.546;13.428;2024-01-27T01:18:33;13.73;;;13.43;;
3943;SDS011;1986;52.546;13.428;2024-01-27T01:21:01;13.70;;;13.40;;
3943;SDS011;1986;52.546;13.428;2024-01-27T01:23:30;14.40;;;14.00;;
3943;SDS011;1986;52.546;13.428;2024-01-27T01:25:59;14.00;;;13.70;;
3943;SDS011;1986;52.546;13.428;2024-01-27T01:28:26;14.43;;;14.03;;
3943;SDS011;1986;52.546;13.428;2024-01-27T01:30:58;14.10;;;13.80;;
3943;SDS011;1986;52.546;13.428;2024-01-27T01:33:27;13.87;;;13.57;;
3943;SDS011;1986;52.546;13.428;2024-01-27T01:35:55;14.00;;;13.70;;
3943;SDS011;1986;52.546;13.428;2024-01-27T01:38:22;14.10;;;13.80;;
3943;SDS011;1986;52.546;13.428;2024-01-27T01:40:49;14.60;;;14.20;;
3943;SDS011;1986;52.546;13.428;2024-01-27T01:43:16;14.10;;;13.80;;
3943;SDS011;1986;52.546;13.428;2024-01-27T01:45:44;13.90;;;13.60;;
3943;SDS011;1986;52.546;13.428;2024-01-27T01:48:12;14.20;;;13.80;;
3943;SDS011;1986;52.546;13.428;2024-01-27T01:50:39;13.80;;;13.50;;
3943;SDS011;1986;52.546;13.428;2024-01-27T01:53:07;14.10;;;13.80;;
3943;SDS011;1986;52.546;13.428;2024-01-27T01:55:34;14.00;;;13.70;;
3943;SDS011;1986;52.546;13.428;2024-01-27T01:58:05;13.80;;;13.50;;
3943;SDS011;1986;52.546;13.428;2024-01-27T02:00:33;13.80;;;13.50;;
3943;SDS011;1986;52.546;13.428;2024-01-27T02:03:01;13.87;;;13.57;;
3943;SDS011;1986;52.546;13.428;2024-01-27T02:05:42;13.70;;;13.40;;
3943;SDS011;1986;52.546;13.428;2024-01-27T02:08:12;14.03;;;13.73;;
3943;SDS011;1986;52.546;13.428;2024-01-27T02:10:39;13.90;;;13.60;;
3943;SDS011;1986;52.546;13.428;2024-01-27T02:13:14;13.70;;;13.40;;
3943;SDS011;1986;52.546;13.428;2024-01-27T02:15:43;13.83;;;13.53;;
3943;SDS011;1986;52.546;13.428;2024-01-27T02:18:12;14.10;;;13.80;;
3943;SDS011;1986;52.546;13.428;2024-01-27T02:20:40;13.80;;;13.50;;
3943;SDS011;1986;52.546;13.428;2024-01-27T02:23:16;13.60;;;13.30;;
3943;SDS011;1986;52.546;13.428;2024-01-27T02:25:50;13.40;;;13.10;;
3943;SDS011;1986;52.546;13.428;2024-01-27T02:28:19;13.50;;;13.20;;
3943;SDS011;1986;52.546;13.428;2024-01-27T02:30:47;13.53;;;13.23;;
3943;SDS011;1986;52.546;13.428;2024-01-27T02:33:14;13.40;;;13.10;;
3943;SDS011;1986;52.546;13.428;2024-01-27T02:35:41;13.40;;;13.10;;
3943;SDS011;1986;52.546;13.428;2024-01-27T02:38:09;13.60;;;13.30;;
3943;SDS011;1986;52.546;13.428;2024-01-27T02:40:36;13.17;;;12.87;;
3943;SDS011;1986;52.546;13.428;2024-01-27T02:43:07;13.63;;;13.33;;
3943;SDS011;1986;52.546;13.428;2024-01-27T02:45:41;13.00;;;12.70;;
3943;SDS011;1986;52.546;13.428;2024-01-27T02:48:08;13.10;;;12.80;;
3943;SDS011;1986;52.546;13.428;2024-01-27T02:50:38;12.80;;;12.60;;
3943;SDS011;1986;52.546;13.428;2024-01-27T02:53:05;13.00;;;12.70;;
3943;SDS011;1986;52.546;13.428;2024-01-27T02:55:37;12.97;;;12.67;;
3943;SDS011;1986;52.546;13.428;2024-01-27T02:58:09;12.60;;;12.40;;
3943;SDS011;1986;52.546;13.428;2024-01-27T03:00:36;12.70;;;12.50;;
3943;SDS011;1986;52.546;13.428;2024-01-27T03:03:04;12.53;;;12.33;;
3943;SDS011;1986;52.546;13.428;2024-01-27T03:05:33;12.70;;;12.50;;
3943;SDS011;1986;52.546;13.428;2024-01-27T03:08:07;12.70;;;12.50;;
3943;SDS011;1986;52.546;13.428;2024-01-27T03:10:34;12.80;;;12.60;;
3943;SDS011;1986;52.546;13.428;2024-01-27T03:13:05;12.87;;;12.67;;
3943;SDS011;1986;52.546;13.428;2024-01-27T03:15:44;13.30;;;13.00;;
3943;SDS011;1986;52.546;13.428;2024-01-27T03:18:13;12.70;;;12.50;;
3943;SDS011;1986;52.546;13.428;2024-01-27T03:20:43;12.87;;;12.67;;
3943;SDS011;1986;52.546;13.428;2024-01-27T03:23:10;12.73;;;12.53;;
3943;SDS011;1986;52.546;13.428;2024-01-27T03:25:38;13.20;;;12.90;;
3943;SDS011;1986;52.546;13.428;2024-01-27T03:28:07;12.70;;;12.50;;
3943;SDS011;1986;52.546;13.428;2024-01-27T03:30:36;12.70;;;12.50;;
3943;SDS011;1986;52.546;13.428;2024-01-27T03:33:04;12.50;;;12.30;;
3943;SDS011;1986;52.546;13.428;2024-01-27T03:35:31;12.70;;;12.50;;
3943;SDS011;1986;52.546;13.428;2024-01-27T03:37:58;12.90;;;12.70;;
3943;SDS011;1986;52.546;13.428;2024-01-27T03:40:25;12.80;;;12.60;;
3943;SDS011;1986;52.546;13.428;2024-01-27T03:42:53;12.50;;;12.30;;
3943;SDS011;1986;52.546;13.428;2024-01-27T03:45:21;12.37;;;12.17;;
3943;SDS011;1986;52.546;13.428;2024-01-27T03:47:51;12.03;;;11.83;;
3943;SDS011;1986;52.546;13.428;2024-01-27T03:50:23;12.20;;;12.00;;
3943;SDS011;1986;52.546;13.428;2024-01-27T03:52:56;12.13;;;11.93;;
3943;SDS011;1986;52.546;13.428;2024-01-27T03:55:27;12.13;;;11.93;;
3943;SDS011;1986;52.546;13.428;2024-01-27T03:57:56;11.70;;;11.50;;
3943;SDS011;1986;52.546;13.428;2024-01-27T04:00:30;11.60;;;11.50;;
3943;SDS011;1986;52.546;13.428;2024-01-27T04:03:06;11.60;;;11.50;;
3943;SDS011;1986;52.546;13.428;2024-01-27T04:05:47;11.63;;;11.50;;
3943;SDS011;1986;52.546;13.428;2024-01-27T04:08:15;11.40;;;11.30;;
3943;SDS011;1986;52.546;13.428;2024-01-27T04:10:51;11.20;;;11.10;;
3943;SDS011;1986;52.546;13.428;2024-01-27T04:13:31;10.90;;;10.80;;
3943;SDS011;1986;52.546;13.428;2024-01-27T04:16:03;11.00;;;10.90;;
3943;SDS011;1986;52.546;13.428;2024-01-27T04:18:30;10.93;;;10.83;;
3943;SDS011;1986;52.546;13.428;2024-01-27T04:20:59;10.47;;;10.37;;
3943;SDS011;1986;52.546;13.428;2024-01-27T04:23:30;10.70;;;10.60;;
3943;SDS011;1986;52.546;13.428;2024-01-27T04:25:59;10.60;;;10.50;;
3943;SDS011;1986;52.546;13.428;2024-01-27T04:28:27;10.57;;;10.47;;
3943;SDS011;1986;52.546;13.428;2024-01-27T04:30:59;10.50;;;10.40;;
3943;SDS011;1986;52.546;13.428;2024-01-27T04:33:28;10.70;;;10.60;;
3943;SDS011;1986;52.546;13.428;2024-01-27T04:35:56;10.80;;;10.70;;
3943;SDS011;1986;52.546;13.428;2024-01-27T04:38:32;10.80;;;10.70;;
3943;SDS011;1986;52.546;13.428;2024-01-27T04:40:59;10.30;;;10.20;;
3943;SDS011;1986;52.546;13.428;2024-01-27T04:43:33;10.40;;;10.30;;
3943;SDS011;1986;52.546;13.428;2024-01-27T04:46:13;10.50;;;10.40;;
3943;SDS011;1986;52.546;13.428;2024-01-27T04:48:40;10.70;;;10.60;;
3943;SDS011;1986;52.546;13.428;2024-01-27T04:51:14;10.40;;;10.30;;
3943;SDS011;1986;52.546;13.428;2024-01-27T04:53:44;10.60;;;10.50;;
3943;SDS011;1986;52.546;13.428;2024-01-27T04:56:15;10.67;;;10.57;;
3943;SDS011;1986;52.546;13.428;2024-01-27T04:58:42;10.60;;;10.50;;
3943;SDS011;1986;52.546;13.428;2024-01-27T05:01:14;10.50;;;10.40;;
3943;SDS011;1986;52.546;13.428;2024-01-27T05:03:55;10.40;;;10.30;;
3943;SDS011;1986;52.546;13.428;2024-01-27T05:06:23;10.47;;;10.37;;
3943;SDS011;1986;52.546;13.428;2024-01-27T05:08:50;10.00;;;9.90;;
3943;SDS011;1986;52.546;13.428;2024-01-27T05:11:25;10.30;;;10.20;;
3943;SDS011;1986;52.546;13.428;2024-01-27T05:13:53;10.20;;;10.10;;
3943;SDS011;1986;52.546;13.428;2024-01-27T05:16:21;10.70;;;10.60;;
3943;SDS011;1986;52.546;13.428;2024-01-27T05:18:48;9.90;;;9.80;;
3943;SDS011;1986;52.546;13.428;2024-01-27T05:21:15;10.10;;;10.00;;
3943;SDS011;1986;52.546;13.428;2024-01-27T05:23:43;10.47;;;10.37;;
3943;SDS011;1986;52.546;13.428;2024-01-27T05:26:10;10.00;;;9.90;;
3943;SDS011;1986;52.546;13.428;2024-01-27T05:28:43;9.63;;;9.53;;
3943;SDS011;1986;52.546;13.428;2024-01-27T05:31:16;9.70;;;9.60;;
3943;SDS011;1986;52.546;13.428;2024-01-27T05:33:44;9.80;;;9.70;;
3943;SDS011;1986;52.546;13.428;2024-01-27T05:36:11;9.80;;;9.70;;
3943;SDS011;1986;52.546;13.428;2024-01-27T05:38:39;9.80;;;9.70;;
3943;SDS011;1986;52.546;13.428;2024-01-27T05:41:06;9.50;;;9.40;;
3943;SDS011;1986;52.546;13.428;2024-01-27T05:43:33;9.60;;;9.50;;
3943;SDS011;1986;52.546;13.428;2024-01-27T05:46:00;9.80;;;9.70;;
3943;SDS011;1986;52.546;13.428;2024-01-27T05:48:27;9.60;;;9.50;;
3943;SDS011;1986;52.546;13.428;2024-01-27T05:50:56;9.40;;;9.30;;
3943;SDS011;1986;52.546;13.428;2024-01-27T05:53:24;9.50;;;9.40;;
3943;SDS011;1986;52.546;13.428;2024-01-27T05:55:51;9.83;;;9.73;;
3943;SDS011;1986;52.546;13.428;2024-01-27T05:58:18;9.57;;;9.47;;
3943;SDS011;1986;52.546;13.428;2024-01-27T06:00:47;9.97;;;9.87;;
3943;SDS011;1986;52.546;13.428;2024-01-27T06:03:14;9.80;;;9.70;;
3943;SDS011;1986;52.546;13.428;2024-01-27T06:05:42;10.10;;;10.00;;
3943;SDS011;1986;52.546;13.428;2024-01-27T06:08:10;9.90;;;9.80;;
3943;SDS011;1986;52.546;13.428;2024-01-27T06:10:37;9.83;;;9.73;;
3943;SDS011;1986;52.546;13.428;2024-01-27T06:13:04;10.00;;;9.90;;
3943;SDS011;1986;52.546;13.428;2024-01-27T06:15:31;10.20;;;10.10;;
3943;SDS011;1986;52.546;13.428;2024-01-27T06:18:00;10.30;;;10.20;;
3943;SDS011;1986;52.546;13.428;2024-01-27T06:20:27;10.10;;;10.00;;
3943;SDS011;1986;52.546;13.428;2024-01-27T06:22:54;10.20;;;10.10;;
3943;SDS011;1986;52.546;13.428;2024-01-27T06:25:25;10.40;;;10.30;;
3943;SDS011;1986;52.546;13.428;2024-01-27T06:27:53;10.50;;;10.40;;
3943;SDS011;1986;52.546;13.428;2024-01-27T06:30:20;10.80;;;10.70;;
3943;SDS011;1986;52.546;13.428;2024-01-27T06:32:47;10.50;;;10.40;;
3943;SDS011;1986;52.546;13.428;2024-01-27T06:35:16;10.63;;;10.53;;
3943;SDS011;1986;52.546;13.428;2024-01-27T06:37:44;10.80;;;10.70;;
3943;SDS011;1986;52.546;13.428;2024-01-27T06:40:14;10.77;;;10.67;;
3943;SDS011;1986;52.546;13.428;2024-01-27T06:42:45;10.77;;;10.67;;
3943;SDS011;1986;52.546;13.428;2024-01-27T06:45:12;10.00;;;9.90;;
3943;SDS011;1986;52.546;13.428;2024-01-27T06:47:39;10.30;;;10.20;;
3943;SDS011;1986;52.546;13.428;2024-01-27T06:50:07;10.43;;;10.33;;
3943;SDS011;1986;52.546;13.428;2024-01-27T06:52:34;10.40;;;10.30;;
3943;SDS011;1986;52.546;13.428;2024-01-27T06:55:01;9.67;;;9.57;;
3943;SDS011;1986;52.546;13.428;2024-01-27T06:57:32;9.30;;;9.20;;
3943;SDS011;1986;52.546;13.428;2024-01-27T07:00:00;9.30;;;9.20;;
3943;SDS011;1986;52.546;13.428;2024-01-27T07:02:36;9.50;;;9.40;;
3943;SDS011;1986;52.546;13.428;2024-01-27T07:05:04;9.97;;;9.87;;
3943;SDS011;1986;52.546;13.428;2024-01-27T07:07:40;10.30;;;10.20;;
3943;SDS011;1986;52.546;13.428;2024-01-27T07:10:08;10.27;;;10.17;;
3943;SDS011;1986;52.546;13.428;2024-01-27T07:12:37;9.90;;;9.80;;
3943;SDS011;1986;52.546;13.428;2024-01-27T07:15:07;9.90;;;9.80;;
3943;SDS011;1986;52.546;13.428;2024-01-27T07:17:35;10.20;;;10.10;;
3943;SDS011;1986;52.546;13.428;2024-01-27T07:20:03;9.60;;;9.50;;
3943;SDS011;1986;52.546;13.428;2024-01-27T07:22:32;9.50;;;9.40;;
3943;SDS011;1986;52.546;13.428;2024-01-27T07:25:02;9.40;;;9.30;;
3943;SDS011;1986;52.546;13.428;2024-01-27T07:27:32;9.30;;;9.20;;
3943;SDS011;1986;52.546;13.428;2024-01-27T07:30:02;9.50;;;9.40;;
3943;SDS011;1986;52.546;13.428;2024-01-27T07:32:36;9.83;;;9.73;;
3943;SDS011;1986;52.546;13.428;2024-01-27T07:35:07;9.43;;;9.33;;
3943;SDS011;1986;52.546;13.428;2024-01-27T07:37:39;9.43;;;9.33;;
3943;SDS011;1986;52.546;13.428;2024-01-27T07:40:08;9.33;;;9.23;;
3943;SDS011;1986;52.546;13.428;2024-01-27T07:42:47;9.77;;;9.67;;
3943;SDS011;1986;52.546;13.428;2024-01-27T07:45:18;9.60;;;9.50;;
3943;SDS011;1986;52.546;13.428;2024-01-27T07:47:45;9.90;;;9.80;;
3943;SDS011;1986;52.546;13.428;2024-01-27T07:50:17;10.00;;;9.90;;
3943;SDS011;1986;52.546;13.428;2024-01-27T07:52:49;9.70;;;9.60;;
3943;SDS011;1986;52.546;13.428;2024-01-27T07:55:19;9.50;;;9.40;;
3943;SDS011;1986;52.546;13.428;2024-01-27T07:57:46;8.93;;;8.83;;
3943;SDS011;1986;52.546;13.428;2024-01-27T08:04:06;9.17;;;9.07;;
3943;SDS011;1986;52.546;13.428;2024-01-27T08:06:47;9.37;;;9.27;;
3943;SDS011;1986;52.546;13.428;2024-01-27T08:09:17;8.80;;;8.70;;
3943;SDS011;1986;52.546;13.428;2024-01-27T08:11:44;9.27;;;9.17;;
3943;SDS011;1986;52.546;13.428;2024-01-27T08:14:16;9.60;;;9.50;;
3943;SDS011;1986;52.546;13.428;2024-01-27T08:16:43;9.63;;;9.53;;
3943;SDS011;1986;52.546;13.428;2024-01-27T08:19:12;9.60;;;9.50;;
3943;SDS011;1986;52.546;13.428;2024-01-27T08:21:45;9.80;;;9.70;;
3943;SDS011;1986;52.546;13.428;2024-01-27T08:24:13;9.50;;;9.40;;
3943;SDS011;1986;52.546;13.428;2024-01-27T08:26:40;10.30;;;10.20;;
3943;SDS011;1986;52.546;13.428;2024-01-27T08:29:08;9.93;;;9.83;;
3943;SDS011;1986;52.546;13.428;2024-01-27T08:31:35;9.60;;;9.50;;
3943;SDS011;1986;52.546;13.428;2024-01-27T08:34:12;10.07;;;9.97;;
3943;SDS011;1986;52.546;13.428;2024-01-27T08:36:42;10.27;;;10.17;;
3943;SDS011;1986;52.546;13.428;2024-01-27T08:39:10;9.80;;;9.70;;
3943;SDS011;1986;52.546;13.428;2024-01-27T08:41:37;10.00;;;9.90;;
3943;SDS011;1986;52.546;13.428;2024-01-27T08:44:13;10.47;;;10.37;;
3943;SDS011;1986;52.546;13.428;2024-01-27T08:46:40;10.20;;;10.10;;
3943;SDS011;1986;52.546;13.428;2024-01-27T08:49:08;10.60;;;10.50;;
3943;SDS011;1986;52.546;13.428;2024-01-27T08:51:36;10.37;;;10.27;;
3943;SDS011;1986;52.546;13.428;2024-01-27T08:54:04;10.40;;;10.30;;
3943;SDS011;1986;52.546;13.428;2024-01-27T08:56:38;10.50;;;10.40;;
3943;SDS011;1986;52.546;13.428;2024-01-27T08:59:06;10.97;;;10.87;;
3943;SDS011;1986;52.546;13.428;2024-01-27T09:01:34;10.17;;;10.07;;
3943;SDS011;1986;52.546;13.428;2024-01-27T09:04:07;10.10;;;10.00;;
3943;SDS011;1986;52.546;13.428;2024-01-27T09:06:45;10.77;;;10.67;;
3943;SDS011;1986;52.546;13.428;2024-01-27T09:09:27;10.90;;;10.80;;
3943;SDS011;1986;52.546;13.428;2024-01-27T09:12:16;10.83;;;10.73;;
3943;SDS011;1986;52.546;13.428;2024-01-27T09:14:47;11.10;;;11.00;;
3943;SDS011;1986;52.546;13.428;2024-01-27T09:17:15;10.70;;;10.60;;
3943;SDS011;1986;52.546;13.428;2024-01-27T09:19:46;10.60;;;10.50;;
3943;SDS011;1986;52.546;13.428;2024-01-27T09:22:24;11.30;;;11.20;;
3943;SDS011;1986;52.546;13.428;2024-01-27T09:24:58;11.13;;;11.03;;
3943;SDS011;1986;52.546;13.428;2024-01-27T09:27:28;11.20;;;11.10;;
3943;SDS011;1986;52.546;13.428;2024-01-27T09:29:55;11.30;;;11.20;;
3943;SDS011;1986;52.546;13.428;2024-01-27T09:32:37;11.60;;;11.50;;
3943;SDS011;1986;52.546;13.428;2024-01-27T09:35:19;11.67;;;11.57;;
3943;SDS011;1986;52.546;13.428;2024-01-27T09:37:56;11.57;;;11.47;;
3943;SDS011;1986;52.546;13.428;2024-01-27T09:40:33;11.70;;;11.60;;
3943;SDS011;1986;52.546;13.428;2024-01-27T09:43:01;11.53;;;11.43;;
3943;SDS011;1986;52.546;13.428;2024-01-27T09:45:36;11.90;;;11.70;;
3943;SDS011;1986;52.546;13.428;2024-01-27T09:48:07;12.57;;;12.37;;
3943;SDS011;1986;52.546;13.428;2024-01-27T09:50:39;12.60;;;12.40;;
3943;SDS011;1986;52.546;13.428;2024-01-27T09:53:10;12.70;;;12.50;;
3943;SDS011;1986;52.546;13.428;2024-01-27T09:55:42;12.33;;;12.13;;
3943;SDS011;1986;52.546;13.428;2024-01-27T09:58:15;12.10;;;12.00;;
3943;SDS011;1986;52.546;13.428;2024-01-27T10:01:00;12.17;;;11.97;;
3943;SDS011;1986;52.546;13.428;2024-01-27T10:03:30;13.00;;;12.80;;
3943;SDS011;1986;52.546;13.428;2024-01-27T10:06:00;12.83;;;12.63;;
3943;SDS011;1986;52.546;13.428;2024-01-27T10:08:52;12.70;;;12.50;;
3943;SDS011;1986;52.546;13.428;2024-01-27T10:11:21;12.63;;;12.43;;
3943;SDS011;1986;52.546;13.428;2024-01-27T10:13:53;12.50;;;12.30;;
3943;SDS011;1986;52.546;13.428;2024-01-27T10:16:25;12.40;;;12.20;;
3943;SDS011;1986;52.546;13.428;2024-01-27T10:19:06;12.37;;;12.17;;
3943;SDS011;1986;52.546;13.428;2024-01-27T10:21:44;13.00;;;12.80;;
3943;SDS011;1986;52.546;13.428;2024-01-27T10:24:14;12.73;;;12.53;;
3943;SDS011;1986;52.546;13.428;2024-01-27T10:27:13;13.27;;;13.07;;
3943;SDS011;1986;52.546;13.428;2024-01-27T10:29:51;12.50;;;12.30;;
3943;SDS011;1986;52.546;13.428;2024-01-27T10:35:42;13.20;;;13.00;;
3943;SDS011;1986;52.546;13.428;2024-01-27T10:38:18;13.10;;;12.90;;
3943;SDS011;1986;52.546;13.428;2024-01-27T10:44:34;13.10;;;12.90;;
3943;SDS011;1986;52.546;13.428;2024-01-27T10:47:09;12.70;;;12.50;;
3943;SDS011;1986;52.546;13.428;2024-01-27T10:49:43;12.90;;;12.70;;
3943;SDS011;1986;52.546;13.428;2024-01-27T10:52:21;12.80;;;12.60;;
3943;SDS011;1986;52.546;13.428;2024-01-27T10:54:54;12.83;;;12.63;;
3943;SDS011;1986;52.546;13.428;2024-01-27T10:57:27;13.17;;;12.97;;
3943;SDS011;1986;52.546;13.428;2024-01-27T11:03:05;12.63;;;12.43;;
3943;SDS011;1986;52.546;13.428;2024-01-27T11:05:34;12.87;;;12.67;;
3943;SDS011;1986;52.546;13.428;2024-01-27T11:08:03;12.90;;;12.70;;
3943;SDS011;1986;52.546;13.428;2024-01-27T11:10:33;13.20;;;13.00;;
3943;SDS011;1986;52.546;13.428;2024-01-27T11:13:03;12.73;;;12.53;;
3943;SDS011;1986;52.546;13.428;2024-01-27T11:15:36;12.67;;;12.47;;
3943;SDS011;1986;52.546;13.428;2024-01-27T11:18:17;13.03;;;12.83;;
3943;SDS011;1986;52.546;13.428;2024-01-27T11:20:46;13.07;;;12.87;;
3943;SDS011;1986;52.546;13.428;2024-01-27T11:23:15;13.53;;;13.33;;
3943;SDS011;1986;52.546;13.428;2024-01-27T11:25:44;13.20;;;13.00;;
3943;SDS011;1986;52.546;13.428;2024-01-27T11:28:31;13.00;;;12.80;;
3943;SDS011;1986;52.546;13.428;2024-01-27T11:31:19;13.80;;;13.60;;
3943;SDS011;1986;52.546;13.428;2024-01-27T11:33:55;13.63;;;13.43;;
3943;SDS011;1986;52.546;13.428;2024-01-27T11:36:38;12.50;;;12.30;;
3943;SDS011;1986;52.546;13.428;2024-01-27T11:39:24;12.73;;;12.53;;
3943;SDS011;1986;52.546;13.428;2024-01-27T11:42:06;12.80;;;12.60;;
3943;SDS011;1986;52.546;13.428;2024-01-27T11:44:36;13.33;;;13.13;;
3943;SDS011;1986;52.546;13.428;2024-01-27T11:50:16;11.97;;;11.77;;
3943;SDS011;1986;52.546;13.428;2024-01-27T11:52:47;12.70;;;12.50;;
3943;SDS011;1986;52.546;13.428;2024-01-27T11:55:19;12.57;;;12.37;;
3943;SDS011;1986;52.546;13.428;2024-01-27T11:57:47;13.10;;;12.90;;
3943;SDS011;1986;52.546;13.428;2024-01-27T12:00:14;13.10;;;12.90;;
3943;SDS011;1986;52.546;13.428;2024-01-27T12:02:51;13.53;;;13.23;;
3943;SDS011;1986;52.546;13.428;2024-01-27T12:05:23;13.13;;;12.93;;
3943;SDS011;1986;52.546;13.428;2024-01-27T12:07:52;12.70;;;12.50;;
3943;SDS011;1986;52.546;13.428;2024-01-27T12:10:24;13.20;;;13.00;;
3943;SDS011;1986;52.546;13.428;2024-01-27T12:12:52;13.20;;;13.00;;
3943;SDS011;1986;52.546;13.428;2024-01-27T12:15:20;12.90;;;12.70;;
3943;SDS011;1986;52.546;13.428;2024-01-27T12:17:51;12.80;;;12.60;;
3943;SDS011;1986;52.546;13.428;2024-01-27T12:23:14;11.80;;;11.60;;
3943;SDS011;1986;52.546;13.428;2024-01-27T12:25:45;12.47;;;12.27;;
3943;SDS011;1986;52.546;13.428;2024-01-27T12:28:21;12.50;;;12.30;;
3943;SDS011;1986;52.546;13.428;2024-01-27T12:30:49;12.70;;;12.50;;
3943;SDS011;1986;52.546;13.428;2024-01-27T12:33:21;13.60;;;13.30;;
3943;SDS011;1986;52.546;13.428;2024-01-27T12:36:01;13.30;;;13.10;;
3943;SDS011;1986;52.546;13.428;2024-01-27T12:38:28;12.57;;;12.37;;
3943;SDS011;1986;52.546;13.428;2024-01-27T12:40:55;12.90;;;12.70;;
3943;SDS011;1986;52.546;13.428;2024-01-27T12:43:22;13.30;;;13.10;;
3943;SDS011;1986;52.546;13.428;2024-01-27T12:45:49;14.00;;;13.70;;
3943;SDS011;1986;52.546;13.428;2024-01-27T12:48:16;12.90;;;12.70;;
3943;SDS011;1986;52.546;13.428;2024-01-27T12:50:54;13.87;;;13.57;;
3943;SDS011;1986;52.546;13.428;2024-01-27T12:53:21;14.20;;;13.90;;
3943;SDS011;1986;52.546;13.428;2024-01-27T12:55:50;14.07;;;13.77;;
3943;SDS011;1986;52.546;13.428;2024-01-27T12:58:17;14.50;;;14.20;;
3943;SDS011;1986;52.546;13.428;2024-01-27T13:00:47;13.97;;;13.67;;
3943;SDS011;1986;52.546;13.428;2024-01-27T13:03:28;14.50;;;14.20;;
3943;SDS011;1986;52.546;13.428;2024-01-27T13:06:01;14.23;;;13.93;;
3943;SDS011;1986;52.546;13.428;2024-01-27T13:08:30;14.10;;;13.80;;
3943;SDS011;1986;52.546;13.428;2024-01-27T13:10:59;14.10;;;13.80;;
3943;SDS011;1986;52.546;13.428;2024-01-27T13:13:28;14.10;;;13.80;;
3943;SDS011;1986;52.546;13.428;2024-01-27T13:15:55;14.00;;;13.70;;
3943;SDS011;1986;52.546;13.428;2024-01-27T13:18:25;13.50;;;13.20;;
3943;SDS011;1986;52.546;13.428;2024-01-27T13:20:52;13.30;;;13.10;;
3943;SDS011;1986;52.546;13.428;2024-01-27T13:23:26;12.93;;;12.73;;
3943;SDS011;1986;52.546;13.428;2024-01-27T13:26:01;13.70;;;13.40;;
3943;SDS011;1986;52.546;13.428;2024-01-27T13:28:29;13.80;;;13.50;;
3943;SDS011;1986;52.546;13.428;2024-01-27T13:30:57;13.80;;;13.50;;
3943;SDS011;1986;52.546;13.428;2024-01-27T13:33:24;13.33;;;13.07;;
3943;SDS011;1986;52.546;13.428;2024-01-27T13:35:53;13.50;;;13.30;;
3943;SDS011;1986;52.546;13.428;2024-01-27T13:38:27;13.80;;;13.50;;
3943;SDS011;1986;52.546;13.428;2024-01-27T13:40:54;13.67;;;13.37;;
3943;SDS011;1986;52.546;13.428;2024-01-27T13:43:41;14.10;;;13.80;;
3943;SDS011;1986;52.546;13.428;2024-01-27T13:46:10;14.07;;;13.77;;
3943;SDS011;1986;52.546;13.428;2024-01-27T13:48:37;13.90;;;13.60;;
3943;SDS011;1986;52.546;13.428;2024-01-27T13:51:11;13.70;;;13.40;;
3943;SDS011;1986;52.546;13.428;2024-01-27T13:56:46;14.00;;;13.70;;
3943;SDS011;1986;52.546;13.428;2024-01-27T13:59:25;13.70;;;13.40;;
3943;SDS011;1986;52.546;13.428;2024-01-27T14:01:55;12.90;;;12.70;;
3943;SDS011;1986;52.546;13.428;2024-01-27T14:04:38;12.80;;;12.60;;
3943;SDS011;1986;52.546;13.428;2024-01-27T14:07:06;13.50;;;13.20;;
3943;SDS011;1986;52.546;13.428;2024-01-27T14:09:34;13.70;;;13.40;;
3943;SDS011;1986;52.546;13.428;2024-01-27T14:12:06;13.30;;;13.00;;
3943;SDS011;1986;52.546;13.428;2024-01-27T14:14:34;12.50;;;12.30;;
3943;SDS011;1986;52.546;13.428;2024-01-27T14:17:03;12.80;;;12.60;;
3943;SDS011;1986;52.546;13.428;2024-01-27T14:19:41;12.47;;;12.27;;
3943;SDS011;1986;52.546;13.428;2024-01-27T14:22:11;13.40;;;13.10;;
3943;SDS011;1986;52.546;13.428;2024-01-27T14:24:38;12.70;;;12.50;;
3943;SDS011;1986;52.546;13.428;2024-01-27T14:27:07;12.90;;;12.67;;
3943;SDS011;1986;52.546;13.428;2024-01-27T14:29:51;13.33;;;13.03;;
3943;SDS011;1986;52.546;13.428;2024-01-27T14:32:21;12.70;;;12.50;;
3943;SDS011;1986;52.546;13.428;2024-01-27T14:34:49;13.53;;;13.23;;
3943;SDS011;1986;52.546;13.428;2024-01-27T14:37:17;13.50;;;13.20;;
3943;SDS011;1986;52.546;13.428;2024-01-27T14:39:48;13.10;;;12.90;;
3943;SDS011;1986;52.546;13.428;2024-01-27T14:42:16;13.20;;;13.00;;
3943;SDS011;1986;52.546;13.428;2024-01-27T14:44:46;13.27;;;12.97;;
3943;SDS011;1986;52.546;13.428;2024-01-27T14:47:14;12.73;;;12.53;;
3943;SDS011;1986;52.546;13.428;2024-01-27T14:49:47;12.20;;;12.00;;
3943;SDS011;1986;52.546;13.428;2024-01-27T14:52:28;12.80;;;12.60;;
3943;SDS011;1986;52.546;13.428;2024-01-27T14:55:11;12.93;;;12.73;;
3943;SDS011;1986;52.546;13.428;2024-01-27T14:57:52;12.67;;;12.47;;
3943;SDS011;1986;52.546;13.428;2024-01-27T15:00:24;13.37;;;13.07;;
3943;SDS011;1986;52.546;13.428;2024-01-27T15:02:52;12.83;;;12.63;;
3943;SDS011;1986;52.546;13.428;2024-01-27T15:05:30;13.17;;;12.90;;
3943;SDS011;1986;52.546;13.428;2024-01-27T15:08:01;13.40;;;13.10;;
3943;SDS011;1986;52.546;13.428;2024-01-27T15:10:37;13.40;;;13.10;;
3943;SDS011;1986;52.546;13.428;2024-01-27T15:13:10;13.53;;;13.23;;
3943;SDS011;1986;52.546;13.428;2024-01-27T15:15:51;13.10;;;12.80;;
3943;SDS011;1986;52.546;13.428;2024-01-27T15:18:19;13.37;;;13.07;;
3943;SDS011;1986;52.546;13.428;2024-01-27T15:20:47;13.17;;;12.87;;
3943;SDS011;1986;52.546;13.428;2024-01-27T15:23:14;12.93;;;12.63;;
3943;SDS011;1986;52.546;13.428;2024-01-27T15:25:41;12.60;;;12.40;;